createdAt,value
2022-12-19T00:01:32.999Z,-2.10
2022-12-19T00:04:02.428Z,-1.98
2022-12-19T00:06:34.429Z,-1.98
2022-12-19T00:09:01.040Z,-2.04
2022-12-19T00:11:29.563Z,-2.04
2022-12-19T00:13:56.723Z,-2.08
2022-12-19T00:16:25.364Z,-2.03
2022-12-19T00:18:54.831Z,-1.87
2022-12-19T00:21:23.938Z,-1.98
2022-12-19T00:23:50.983Z,-1.80
2022-12-19T00:26:30.106Z,-1.81
2022-12-19T00:28:59.889Z,-1.82
2022-12-19T00:31:30.054Z,-1.81
2022-12-19T00:33:56.983Z,-2.00
2022-12-19T00:36:26.057Z,-1.80
2022-12-19T00:38:54.398Z,-1.78
2022-12-19T00:41:26.258Z,-1.93
2022-12-19T00:43:58.492Z,-1.72
2022-12-19T00:46:29.175Z,-1.71
2022-12-19T00:48:55.872Z,-1.78
2022-12-19T00:51:25.124Z,-1.77
2022-12-19T00:53:53.467Z,-1.90
2022-12-19T00:56:23.757Z,-1.88
2022-12-19T00:58:50.565Z,-1.85
2022-12-19T01:01:19.909Z,-1.82
2022-12-19T01:04:11.252Z,-1.76
2022-12-19T01:06:34.372Z,-1.69
2022-12-19T01:09:01.966Z,-1.63
2022-12-19T01:11:47.073Z,-1.64
2022-12-19T01:14:20.752Z,-1.63
2022-12-19T01:16:49.503Z,-1.71
2022-12-19T01:19:16.089Z,-1.69
2022-12-19T01:21:42.634Z,-1.68
2022-12-19T01:24:09.786Z,-1.64
2022-12-19T01:26:36.388Z,-1.64
2022-12-19T01:29:02.909Z,-1.64
2022-12-19T01:31:29.522Z,-1.62
2022-12-19T01:33:56.068Z,-1.58
2022-12-19T01:36:22.704Z,-1.67
2022-12-19T01:38:49.173Z,-1.68
2022-12-19T01:41:15.724Z,-1.54
2022-12-19T01:44:01.078Z,-1.52
2022-12-19T01:46:34.123Z,-1.55
2022-12-19T01:49:02.522Z,-1.53
2022-12-19T01:51:37.299Z,-1.55
2022-12-19T01:54:09.351Z,-1.58
2022-12-19T01:56:41.358Z,-1.59
2022-12-19T01:59:12.655Z,-1.83
2022-12-19T02:01:51.899Z,-1.83
2022-12-19T02:04:20.291Z,-1.93
2022-12-19T02:06:47.392Z,-1.89
2022-12-19T02:09:16.035Z,-1.91
2022-12-19T02:11:42.595Z,-1.75
2022-12-19T02:14:09.349Z,-1.70
2022-12-19T02:17:17.310Z,-1.65
2022-12-19T02:20:05.272Z,-1.64
2022-12-19T02:23:05.822Z,-1.61
2022-12-19T02:25:38.414Z,-1.60
2022-12-19T02:28:31.306Z,-1.62
2022-12-19T02:31:23.008Z,-1.57
2022-12-19T02:34:07.495Z,-1.55
2022-12-19T02:36:46.835Z,-1.56
2022-12-19T02:39:26.252Z,-1.54
2022-12-19T02:41:58.587Z,-1.59
2022-12-19T02:44:40.139Z,-1.64
2022-12-19T02:47:08.677Z,-1.80
2022-12-19T02:49:36.842Z,-1.66
2022-12-19T02:52:26.551Z,-1.67
2022-12-19T02:54:57.306Z,-1.65
2022-12-19T02:57:23.693Z,-1.61
2022-12-19T03:00:01.069Z,-1.58
2022-12-19T03:03:00.722Z,-1.51
2022-12-19T03:05:55.134Z,-1.67
2022-12-19T03:08:39.821Z,-1.45
2022-12-19T03:11:13.410Z,-1.48
2022-12-19T03:14:03.708Z,-1.44
2022-12-19T03:16:30.304Z,-1.46
2022-12-19T03:18:57.854Z,-1.47
2022-12-19T03:21:36.228Z,-1.51
2022-12-19T03:24:05.612Z,-1.70
2022-12-19T03:26:37.920Z,-1.60
2022-12-19T03:29:15.292Z,-1.60
2022-12-19T03:31:44.185Z,-1.60
2022-12-19T03:34:18.435Z,-1.56
2022-12-19T03:36:50.361Z,-1.57
2022-12-19T03:39:19.421Z,-1.56
2022-12-19T03:42:04.632Z,-1.55
2022-12-19T03:44:35.561Z,-1.47
2022-12-19T03:47:43.827Z,-1.38
2022-12-19T03:50:11.166Z,-1.35
2022-12-19T03:52:58.889Z,-1.36
2022-12-19T03:55:28.461Z,-1.31
2022-12-19T03:58:23.989Z,-1.32
2022-12-19T04:00:51.809Z,-1.41
2022-12-19T04:03:19.600Z,-1.25
2022-12-19T04:05:48.463Z,-1.16
2022-12-19T04:08:16.739Z,-1.13
2022-12-19T04:10:49.478Z,-1.11
2022-12-19T04:13:20.498Z,-1.24
2022-12-19T04:16:00.069Z,-1.13
2022-12-19T04:18:27.204Z,-1.12
2022-12-19T04:21:11.561Z,-1.11
2022-12-19T04:23:45.369Z,-1.28
2022-12-19T04:26:13.644Z,-1.22
2022-12-19T04:28:50.937Z,-1.24
2022-12-19T04:31:19.505Z,-1.15
2022-12-19T04:33:46.472Z,-1.26
2022-12-19T04:36:13.130Z,-1.17
2022-12-19T04:38:39.707Z,-1.23
2022-12-19T04:41:06.353Z,-1.21
2022-12-19T04:43:32.933Z,-1.00
2022-12-19T04:46:00.138Z,-0.96
2022-12-19T04:48:26.950Z,-0.98
2022-12-19T04:50:53.573Z,-1.10
2022-12-19T04:53:20.101Z,-0.96
2022-12-19T04:55:46.621Z,-1.00
2022-12-19T04:58:17.601Z,-1.13
2022-12-19T05:00:46.849Z,-0.98
2022-12-19T05:03:13.499Z,-0.99
2022-12-19T05:05:40.213Z,-0.98
2022-12-19T05:08:07.703Z,-1.11
2022-12-19T05:10:35.973Z,-0.96
2022-12-19T05:13:02.688Z,-0.99
2022-12-19T05:15:29.262Z,-1.19
2022-12-19T05:17:55.798Z,-1.11
2022-12-19T05:20:22.300Z,-1.06
2022-12-19T05:22:49.129Z,-1.01
2022-12-19T05:25:15.789Z,-0.96
2022-12-19T05:27:42.265Z,-0.90
2022-12-19T05:30:09.601Z,-0.86
2022-12-19T05:32:36.126Z,-0.82
2022-12-19T05:35:02.643Z,-0.89
2022-12-19T05:37:29.142Z,-0.88
2022-12-19T05:39:55.579Z,-0.88
2022-12-19T05:42:22.085Z,-0.86
2022-12-19T05:44:48.615Z,-0.89
2022-12-19T05:47:15.190Z,-0.83
2022-12-19T05:49:41.749Z,-0.97
2022-12-19T05:52:08.252Z,-0.97
2022-12-19T05:54:34.750Z,-0.79
2022-12-19T05:57:01.529Z,-0.77
2022-12-19T05:59:28.022Z,-0.88
2022-12-19T06:01:54.852Z,-0.74
2022-12-19T06:04:21.403Z,-0.68
2022-12-19T06:06:47.877Z,-0.71
2022-12-19T06:09:14.360Z,-0.73
2022-12-19T06:11:40.900Z,-0.63
2022-12-19T06:14:07.451Z,-0.64
2022-12-19T06:16:34.023Z,-0.68
2022-12-19T06:19:00.543Z,-0.64
2022-12-19T06:21:27.255Z,-0.65
2022-12-19T06:23:54.774Z,-0.71
2022-12-19T06:26:22.634Z,-0.71
2022-12-19T06:28:51.548Z,-0.72
2022-12-19T06:31:19.975Z,-0.68
2022-12-19T06:33:46.572Z,-0.72
2022-12-19T06:36:20.367Z,-0.62
2022-12-19T06:38:47.501Z,-0.65
2022-12-19T06:41:33.465Z,-0.66
2022-12-19T06:44:01.800Z,-0.60
2022-12-19T06:46:29.265Z,-0.55
2022-12-19T06:48:56.153Z,-0.52
2022-12-19T06:51:23.068Z,-0.51
2022-12-19T06:53:50.318Z,-0.75
2022-12-19T06:56:19.015Z,-0.47
2022-12-19T06:58:45.835Z,-0.46
2022-12-19T07:01:38.386Z,-0.45
2022-12-19T07:04:05.863Z,-0.46
2022-12-19T07:06:35.463Z,-0.48
2022-12-19T07:09:03.193Z,-0.52
2022-12-19T07:11:29.691Z,-0.48
2022-12-19T07:13:56.139Z,-0.51
2022-12-19T07:16:27.428Z,-0.47
2022-12-19T07:18:54.213Z,-0.44
2022-12-19T07:21:20.713Z,-0.61
2022-12-19T07:23:47.263Z,-0.39
2022-12-19T07:26:13.927Z,-0.48
2022-12-19T07:28:40.559Z,-0.36
2022-12-19T07:31:07.133Z,-0.45
2022-12-19T07:33:33.764Z,-0.45
2022-12-19T07:36:00.342Z,-0.50
2022-12-19T07:38:26.964Z,-0.42
2022-12-19T07:40:53.440Z,-0.40
2022-12-19T07:43:20.116Z,-0.46
2022-12-19T07:45:46.674Z,-0.45
2022-12-19T07:48:13.274Z,-0.51
2022-12-19T07:50:41.159Z,-0.50
2022-12-19T07:53:07.629Z,-0.55
2022-12-19T07:55:34.308Z,-0.73
2022-12-19T07:58:00.812Z,-0.54
2022-12-19T08:00:27.315Z,-0.51
2022-12-19T08:02:53.845Z,-0.48
2022-12-19T08:05:20.475Z,-0.46
2022-12-19T08:07:47.044Z,-0.46
2022-12-19T08:10:15.177Z,-0.48
2022-12-19T08:12:42.243Z,-0.45
2022-12-19T08:15:09.136Z,-0.54
2022-12-19T08:17:38.649Z,-0.39
2022-12-19T08:20:07.144Z,-0.41
2022-12-19T08:22:34.022Z,-0.57
2022-12-19T08:25:00.568Z,-0.48
2022-12-19T08:27:27.563Z,-0.38
2022-12-19T08:29:54.170Z,-0.49
2022-12-19T08:32:22.003Z,-0.45
2022-12-19T08:34:49.948Z,-0.24
2022-12-19T08:37:17.125Z,-0.21
2022-12-19T08:39:43.757Z,-0.23
2022-12-19T08:42:10.239Z,-0.36
2022-12-19T08:44:36.758Z,-0.27
2022-12-19T08:47:03.326Z,-0.30
2022-12-19T08:49:29.780Z,-0.28
2022-12-19T08:51:56.440Z,-0.31
2022-12-19T08:54:23.070Z,-0.29
2022-12-19T08:56:49.877Z,-0.39
2022-12-19T08:59:20.480Z,-0.36
2022-12-19T09:01:58.674Z,-0.20
2022-12-19T09:06:00.905Z,-0.19
2022-12-19T09:07:12.568Z,-0.19
2022-12-19T09:09:42.572Z,-0.19
2022-12-19T09:12:09.162Z,-0.15
2022-12-19T09:14:35.943Z,-0.11
2022-12-19T09:17:02.997Z,-0.10
2022-12-19T09:19:32.078Z,-0.07
2022-12-19T09:21:58.779Z,-0.04
2022-12-19T09:24:25.412Z,-0.07
2022-12-19T09:26:52.610Z,-0.03
2022-12-19T09:29:21.763Z,-0.04
2022-12-19T09:31:56.427Z,0.04
2022-12-19T09:34:37.668Z,0.03
2022-12-19T09:37:16.238Z,-0.02
2022-12-19T09:39:45.485Z,0.18
2022-12-19T09:42:25.371Z,0.19
2022-12-19T09:45:14.681Z,0.24
2022-12-19T09:47:49.240Z,0.29
2022-12-19T09:50:52.818Z,0.31
2022-12-19T09:53:36.359Z,0.30
2022-12-19T09:56:03.010Z,0.33
2022-12-19T09:58:42.491Z,0.35
2022-12-19T10:01:20.447Z,0.31
2022-12-19T10:03:58.542Z,0.39
2022-12-19T10:07:10.624Z,0.45
2022-12-19T10:11:26.033Z,0.45
2022-12-19T10:12:46.643Z,0.50
2022-12-19T10:15:34.232Z,0.53
2022-12-19T10:18:26.891Z,0.54
2022-12-19T10:21:59.059Z,0.55
2022-12-19T10:24:33.168Z,0.53
2022-12-19T10:27:11.919Z,0.55
2022-12-19T10:29:48.794Z,0.43
2022-12-19T10:32:27.848Z,0.58
2022-12-19T10:34:55.315Z,0.63
2022-12-19T10:37:47.347Z,0.65
2022-12-19T10:40:34.738Z,0.66
2022-12-19T10:43:34.800Z,0.68
2022-12-19T10:46:20.196Z,0.72
2022-12-19T10:48:50.651Z,0.56
2022-12-19T10:51:24.717Z,0.58
2022-12-19T10:53:57.173Z,0.65
2022-12-19T10:56:30.338Z,0.62
2022-12-19T10:59:03.135Z,0.56
2022-12-19T11:01:35.605Z,0.52
2022-12-19T11:04:18.115Z,0.55
2022-12-19T11:06:51.416Z,0.53
2022-12-19T11:09:29.293Z,0.56
2022-12-19T11:16:55.546Z,0.58
2022-12-19T11:21:41.121Z,0.63
2022-12-19T11:23:46.448Z,0.64
2022-12-19T11:29:29.926Z,0.66
2022-12-19T11:29:41.753Z,0.63
2022-12-19T11:30:38.166Z,0.64
2022-12-19T11:32:41.342Z,0.69
2022-12-19T11:35:36.815Z,0.65
2022-12-19T11:38:06.679Z,0.60
2022-12-19T11:40:44.721Z,0.52
2022-12-19T11:43:50.502Z,0.57
2022-12-19T11:46:32.848Z,0.60
2022-12-19T11:49:16.749Z,0.59
2022-12-19T11:52:23.717Z,0.42
2022-12-19T11:55:05.522Z,0.54
2022-12-19T11:57:32.053Z,0.51
2022-12-19T12:00:04.493Z,0.57
2022-12-19T12:03:05.669Z,0.64
2022-12-19T12:05:45.350Z,0.63
2022-12-19T12:09:42.661Z,0.62
2022-12-19T12:17:42.716Z,0.63
2022-12-19T12:22:26.400Z,0.66
2022-12-19T12:31:01.918Z,0.67
2022-12-19T12:31:26.379Z,0.64
2022-12-19T12:31:38.256Z,0.66
2022-12-19T12:31:46.193Z,0.61
2022-12-19T12:32:04.670Z,0.59
2022-12-19T12:36:56.009Z,0.42
2022-12-19T12:39:50.004Z,0.53
2022-12-19T12:42:22.357Z,0.52
2022-12-19T12:44:52.806Z,0.52
2022-12-19T12:47:27.517Z,0.49
2022-12-19T12:49:58.752Z,0.47
2022-12-19T12:52:48.026Z,0.46
2022-12-19T12:55:20.479Z,0.46
2022-12-19T12:57:47.278Z,0.48
2022-12-19T13:00:27.439Z,0.48
2022-12-19T13:03:09.455Z,0.34
2022-12-19T13:05:43.893Z,0.47
2022-12-19T13:08:34.675Z,0.44
2022-12-19T13:11:04.515Z,0.48
2022-12-19T13:13:56.175Z,0.49
2022-12-19T13:16:45.506Z,0.57
2022-12-19T13:19:33.567Z,0.58
2022-12-19T13:22:09.057Z,0.63
2022-12-19T13:24:45.645Z,0.66
2022-12-19T13:27:21.170Z,0.70
2022-12-19T13:29:59.911Z,0.71
2022-12-19T13:32:32.680Z,0.47
2022-12-19T13:35:50.734Z,0.67
2022-12-19T13:39:55.644Z,0.57
2022-12-19T13:41:23.909Z,0.64
2022-12-19T13:43:50.461Z,0.67
2022-12-19T13:46:42.830Z,0.65
2022-12-19T13:49:31.658Z,0.67
2022-12-19T13:52:02.496Z,0.71
2022-12-19T13:54:34.606Z,0.71
2022-12-19T13:57:04.313Z,0.68
2022-12-19T13:59:39.903Z,0.63
2022-12-19T14:02:07.861Z,0.63
2022-12-19T14:04:34.732Z,0.60
2022-12-19T14:07:05.037Z,0.61
2022-12-19T14:11:28.575Z,0.35
2022-12-19T14:13:57.432Z,0.56
2022-12-19T14:15:44.362Z,0.64
2022-12-19T14:18:44.993Z,0.65
2022-12-19T14:22:05.621Z,0.60
2022-12-19T14:24:19.523Z,0.26
2022-12-19T14:28:20.605Z,0.48
2022-12-19T14:30:29.901Z,0.45
2022-12-19T14:33:40.269Z,0.47
2022-12-19T14:36:08.614Z,0.56
2022-12-19T14:39:22.535Z,0.61
2022-12-19T14:41:45.476Z,0.38
2022-12-19T14:52:26.130Z,0.56
2022-12-19T14:52:35.818Z,0.52
2022-12-19T14:54:22.392Z,0.48
2022-12-19T14:54:25.031Z,0.48
2022-12-19T14:59:05.632Z,0.40
2022-12-19T15:01:35.099Z,0.47
2022-12-19T15:04:48.432Z,0.48
2022-12-19T15:07:06.674Z,0.39
2022-12-19T15:11:06.148Z,0.43
2022-12-19T15:14:51.285Z,0.40
2022-12-19T15:15:56.450Z,0.33
2022-12-19T15:18:41.305Z,0.29
2022-12-19T15:21:13.146Z,0.29
2022-12-19T15:23:40.333Z,0.25
2022-12-19T15:26:13.200Z,0.21
2022-12-19T15:28:46.463Z,0.27
2022-12-19T15:31:34.619Z,0.26
2022-12-19T15:34:36.257Z,0.24
2022-12-19T15:37:04.989Z,0.17
2022-12-19T15:39:31.755Z,0.14
2022-12-19T15:42:00.298Z,0.14
2022-12-19T15:44:37.686Z,0.11
2022-12-19T15:47:07.914Z,0.08
2022-12-19T15:49:35.383Z,0.10
2022-12-19T15:52:02.955Z,0.10
2022-12-19T15:57:38.650Z,0.19
2022-12-19T16:00:12.961Z,-0.07
2022-12-19T16:05:29.201Z,0.03
2022-12-19T16:07:56.969Z,0.18
2022-12-19T16:10:23.523Z,0.14
2022-12-19T16:12:53.133Z,-0.03
2022-12-19T16:15:34.218Z,-0.06
2022-12-19T16:18:03.145Z,-0.04
2022-12-19T16:20:37.663Z,0.19
2022-12-19T16:23:04.293Z,0.20
2022-12-19T16:25:40.995Z,0.19
2022-12-19T16:28:15.346Z,0.16
2022-12-19T16:30:44.363Z,0.14
2022-12-19T16:33:22.104Z,0.13
2022-12-19T16:36:06.710Z,0.14
2022-12-19T16:38:33.986Z,-0.05
2022-12-19T16:41:01.757Z,0.15
2022-12-19T16:43:32.016Z,0.12
2022-12-19T16:46:01.440Z,0.14
2022-12-19T16:48:30.025Z,0.08
2022-12-19T16:50:59.973Z,0.13
2022-12-19T16:53:26.601Z,0.10
2022-12-19T16:55:55.621Z,0.09
2022-12-19T16:58:25.204Z,0.07
2022-12-19T17:00:55.350Z,-0.21
2022-12-19T17:03:48.316Z,0.08
2022-12-19T17:06:17.487Z,0.08
2022-12-19T17:08:44.773Z,0.10
2022-12-19T17:11:18.476Z,0.12
2022-12-19T17:13:47.661Z,0.10
2022-12-19T17:16:14.236Z,-0.09
2022-12-19T17:18:43.404Z,0.12
2022-12-19T17:21:22.947Z,0.14
2022-12-19T17:23:50.352Z,0.08
2022-12-19T17:26:18.466Z,0.11
2022-12-19T17:28:48.103Z,0.07
2022-12-19T17:31:24.573Z,0.02
2022-12-19T17:33:51.624Z,0.17
2022-12-19T17:36:21.354Z,0.17
2022-12-19T17:38:51.482Z,0.21
2022-12-19T17:41:18.044Z,0.23
2022-12-19T17:43:44.636Z,0.09
2022-12-19T17:46:19.510Z,0.21
2022-12-19T17:48:50.450Z,0.25
2022-12-19T17:51:18.673Z,0.29
2022-12-19T17:53:46.394Z,0.24
2022-12-19T17:56:14.654Z,0.31
2022-12-19T17:58:41.540Z,0.38
2022-12-19T18:01:17.256Z,0.17
2022-12-19T18:03:43.871Z,0.42
2022-12-19T18:06:12.422Z,0.42
2022-12-19T18:08:41.461Z,0.44
2022-12-19T18:11:18.055Z,0.42
2022-12-19T18:13:45.199Z,0.41
2022-12-19T18:16:14.890Z,0.37
2022-12-19T18:18:41.745Z,0.38
2022-12-19T18:21:14.711Z,0.37
2022-12-19T18:23:42.090Z,0.31
2022-12-19T18:26:10.741Z,0.38
2022-12-19T18:28:37.780Z,0.18
2022-12-19T18:31:14.942Z,0.40
2022-12-19T18:33:46.665Z,0.37
2022-12-19T18:36:22.196Z,0.21
2022-12-19T18:38:51.395Z,0.37
2022-12-19T18:41:18.911Z,0.21
2022-12-19T18:43:45.597Z,0.33
2022-12-19T18:46:14.690Z,0.28
2022-12-19T18:48:43.096Z,0.32
2022-12-19T18:51:18.719Z,0.28
2022-12-19T18:53:46.890Z,0.18
2022-12-19T18:56:13.940Z,0.23
2022-12-19T18:58:41.454Z,0.22
2022-12-19T19:01:15.863Z,0.21
2022-12-19T19:03:51.780Z,0.17
2022-12-19T19:06:22.735Z,0.22
2022-12-19T19:08:50.277Z,0.21
2022-12-19T19:11:16.973Z,0.22
2022-12-19T19:13:43.420Z,0.28
2022-12-19T19:16:23.368Z,0.30
2022-12-19T19:18:54.929Z,0.27
2022-12-19T19:21:24.675Z,0.32
2022-12-19T19:23:57.736Z,0.28
2022-12-19T19:26:24.557Z,0.43
2022-12-19T19:28:52.699Z,0.41
2022-12-19T19:31:21.784Z,0.43
2022-12-19T19:34:08.766Z,0.51
2022-12-19T19:36:40.208Z,0.52
2022-12-19T19:39:07.301Z,0.51
2022-12-19T19:41:34.425Z,0.40
2022-12-19T19:44:01.422Z,0.54
2022-12-19T19:46:28.491Z,0.55
2022-12-19T19:48:55.342Z,0.47
2022-12-19T19:51:22.054Z,0.53
2022-12-19T19:53:48.637Z,0.52
2022-12-19T19:56:15.233Z,0.47
2022-12-19T19:58:41.987Z,0.45
2022-12-19T20:01:10.905Z,0.46
2022-12-19T20:03:38.408Z,0.45
2022-12-19T20:06:05.288Z,0.48
2022-12-19T20:08:38.847Z,0.49
2022-12-19T20:11:06.972Z,0.50
2022-12-19T20:13:34.167Z,0.59
2022-12-19T20:16:06.562Z,0.65
2022-12-19T20:18:33.722Z,0.67
2022-12-19T20:21:00.331Z,0.53
2022-12-19T20:23:27.108Z,0.76
2022-12-19T20:25:53.887Z,0.83
2022-12-19T20:28:20.440Z,0.80
2022-12-19T20:30:47.312Z,0.92
2022-12-19T20:33:14.103Z,0.95
2022-12-19T20:35:40.810Z,0.96
2022-12-19T20:38:07.663Z,1.00
2022-12-19T20:40:34.298Z,1.02
2022-12-19T20:43:02.117Z,0.99
2022-12-19T20:45:28.845Z,1.02
2022-12-19T20:47:55.449Z,1.08
2022-12-19T20:50:22.391Z,1.04
2022-12-19T20:52:48.984Z,1.11
2022-12-19T20:55:15.847Z,1.12
2022-12-19T20:57:42.355Z,1.15
2022-12-19T21:00:10.205Z,1.16
2022-12-19T21:03:00.571Z,0.99
2022-12-19T21:05:23.241Z,1.17
2022-12-19T21:07:49.845Z,1.21
2022-12-19T21:10:16.437Z,1.19
2022-12-19T21:12:47.547Z,1.24
2022-12-19T21:15:14.687Z,1.23
2022-12-19T21:17:41.321Z,1.22
2022-12-19T21:20:08.454Z,1.18
2022-12-19T21:22:35.310Z,1.17
2022-12-19T21:25:01.971Z,1.13
2022-12-19T21:27:28.572Z,1.09
2022-12-19T21:29:55.214Z,1.10
2022-12-19T21:32:21.851Z,1.05
2022-12-19T21:34:48.396Z,1.04
2022-12-19T21:37:14.947Z,0.99
2022-12-19T21:39:41.462Z,1.04
2022-12-19T21:42:08.148Z,1.04
2022-12-19T21:44:34.940Z,0.99
2022-12-19T21:47:01.729Z,0.94
2022-12-19T21:49:28.344Z,0.76
2022-12-19T21:51:54.911Z,0.95
2022-12-19T21:54:21.779Z,0.89
2022-12-19T21:56:48.321Z,0.99
2022-12-19T21:59:17.255Z,1.02
2022-12-19T22:01:45.350Z,0.90
2022-12-19T22:04:16.149Z,0.91
2022-12-19T22:06:42.637Z,1.11
2022-12-19T22:09:13.625Z,1.12
2022-12-19T22:11:40.685Z,1.15
2022-12-19T22:14:07.672Z,1.16
2022-12-19T22:16:35.491Z,1.19
2022-12-19T22:19:03.038Z,1.20
2022-12-19T22:21:30.931Z,1.21
2022-12-19T22:24:02.547Z,1.16
2022-12-19T22:26:31.038Z,1.12
2022-12-19T22:28:58.649Z,1.13
2022-12-19T22:31:33.496Z,1.27
2022-12-19T22:34:02.941Z,1.14
2022-12-19T22:36:31.977Z,1.35
2022-12-19T22:39:00.324Z,1.34
2022-12-19T22:41:27.915Z,1.30
2022-12-19T22:43:55.538Z,1.35
2022-12-19T22:46:26.336Z,1.38
2022-12-19T22:48:55.033Z,1.36
2022-12-19T22:51:21.617Z,1.30
2022-12-19T22:53:48.859Z,1.34
2022-12-19T22:56:18.382Z,1.18
2022-12-19T22:58:46.795Z,1.28
2022-12-19T23:01:25.363Z,1.31
2022-12-19T23:03:53.852Z,1.34
2022-12-19T23:06:21.947Z,1.35
2022-12-19T23:08:48.977Z,1.32
2022-12-19T23:11:20.340Z,1.30
2022-12-19T23:13:48.245Z,1.33
2022-12-19T23:16:15.084Z,1.37
2022-12-19T23:18:42.550Z,1.37
2022-12-19T23:21:12.481Z,1.36
2022-12-19T23:23:42.024Z,1.40
2022-12-19T23:26:15.528Z,1.42
2022-12-19T23:29:03.697Z,1.42
2022-12-19T23:31:31.008Z,1.37
2022-12-19T23:33:58.654Z,1.36
2022-12-19T23:37:08.919Z,1.44
2022-12-19T23:39:13.701Z,1.45
2022-12-19T23:41:40.859Z,1.44
2022-12-19T23:44:09.041Z,1.44
2022-12-19T23:46:35.811Z,1.46
2022-12-19T23:49:02.493Z,1.42
2022-12-19T23:51:30.168Z,1.47
2022-12-19T23:53:56.904Z,1.27
2022-12-19T23:56:26.741Z,1.46
2022-12-19T23:58:53.750Z,1.49
